1886 Severe Cyclonic Storm NOT_NAMED (1886319N11094)


IBTrACS version v04r00. Visit IBTrACS website for data access.
Please direct all questions to the IBTrACS Q and A forum

Storm track - Intensity - Wind Radii - Intensity Data - Source Data - All data

Summary Information

Storm ID 1886319N11094
Start Nov 15 00Z
Max Intensity 64 kt (Nov 15 03Z)
End Nov 23 03Z
ATCF IDs
Track status Best track data.

Storm track plot

Map of storm track

Intensity plots

Map of storm track

Radial wind information

No radial wind information for this storm


Position and Intensity Table

BASIN ISO_TIME_________ NATURE LAT LON DS824 WIND
degrees north degrees east kts
NI 1886-11-15 00:00:00 TS 10.50 93.80 64
NI 03:00:00 TS 10.50 93.80 64
NI 06:00:00 TS 10.50 93.80 64
NI 09:00:00 TS 10.51 93.80 64
NI 12:00:00 TS 10.51 93.80 64
NI 15:00:00 TS 10.50 93.80 64
NI 18:00:00 TS 10.49 93.80 64
NI 21:00:00 TS 10.47 93.80 64
NI 1886-11-16 00:00:00 TS 10.48 93.80 64
NI 03:00:00 TS 10.53 93.80 64
NI 06:00:00 TS 10.65 93.80 64
NI 09:00:00 TS 10.82 93.80 64
NI 12:00:00 TS 11.01 93.80 64
NI 15:00:00 TS 11.18 93.80 64
NI 18:00:00 TS 11.33 93.80 64
NI 21:00:00 TS 11.48 93.80 64
NI 1886-11-17 00:00:00 TS 11.63 93.80 64
NI 03:00:00 TS 11.78 93.80 64
NI 06:00:00 TS 11.92 93.79 64
NI 09:00:00 TS 12.04 93.75 64
NI 12:00:00 TS 12.14 93.71 64
NI 15:00:00 TS 12.25 93.70 64
NI 18:00:00 TS 12.35 93.69 64
NI 21:00:00 TS 12.45 93.66 64
NI 1886-11-18 00:00:00 TS 12.55 93.62 64
NI 03:00:00 TS 12.65 93.58 64
NI 06:00:00 TS 12.75 93.53 64
NI 09:00:00 TS 12.84 93.48 64
NI 12:00:00 TS 12.95 93.43 64
NI 15:00:00 TS 13.08 93.38 64
NI 18:00:00 TS 13.21 93.33 64
NI 21:00:00 TS 13.33 93.28 64
NI 1886-11-19 00:00:00 TS 13.44 93.23 64
NI 03:00:00 TS 13.55 93.18 64
NI 06:00:00 TS 13.64 93.12 64
NI 09:00:00 TS 13.70 93.07 64
NI 12:00:00 TS 13.76 93.02 64
NI 15:00:00 TS 13.85 92.98 64
NI 18:00:00 TS 13.93 92.94 64
NI 21:00:00 TS 14.00 92.92 64
NI 1886-11-20 00:00:00 TS 14.12 92.86 64
NI 03:00:00 TS 14.34 92.69 64
NI 06:00:00 TS 14.62 92.45 64
NI 09:00:00 TS 14.89 92.17 64
NI 12:00:00 TS 15.16 91.86 64
NI 15:00:00 TS 15.43 91.55 64
NI 18:00:00 TS 15.68 91.26 64
NI 21:00:00 TS 15.91 90.98 64
NI 1886-11-21 00:00:00 TS 16.11 90.67 64
NI 03:00:00 TS 16.29 90.31 64
NI 06:00:00 TS 16.42 89.91 64
NI 09:00:00 TS 16.51 89.51 64
NI 12:00:00 TS 16.57 89.10 64
NI 15:00:00 TS 16.62 88.70 64
NI 18:00:00 TS 16.68 88.30 64
NI 21:00:00 TS 16.73 87.93 64
NI 1886-11-22 00:00:00 TS 16.78 87.58 64
NI 03:00:00 TS 16.82 87.25 64
NI 06:00:00 TS 16.88 86.93 64
NI 09:00:00 TS 16.93 86.60 64
NI 12:00:00 TS 16.98 86.27 64
NI 15:00:00 TS 17.03 85.93 64
NI 18:00:00 TS 17.06 85.60 64
NI 21:00:00 TS 17.08 85.23 64
NI 1886-11-23 00:00:00 TS 17.09 84.86 64
NI 03:00:00 NR 17.10 84.60

Source Information

Agency Information
USA
TOKYO
CMA
HKO
NEWDELHI
REUNION
BOM
NADI
WELLINGTON
DS824 n_ind.dat:105:NOT NAMED
TD9636 cons_worldwide_trop_cyclone_18710101-19891231-004:Line=1038
TD9635
NEUMANN
MLC

All available IBTrACS Data

SEASON BASIN SUBBASIN ISO_TIME_________ NATURE LAT LON DIST2LAND LANDFALL IFLAG USA SSHS DS824 LAT DS824 LON DS824 STAGE DS824 WIND TD9636 LAT TD9636 LON TD9636 STAGE STORM SPEED STORM DIR
Year degrees north degrees east km km 1 degrees north degrees east kts degrees north degrees east kts degrees
1886 NI BB 1886-11-15 00:00:00 TS 10.50 93.80 514 514 _________O____ -1 10.50 93.80 TC 64 0 0
1886 NI BB 03:00:00 TS 10.50 93.80 514 514 _________PO___ -1 10.50 93.80 TC 64 10.50 93.80 4 0 0
1886 NI BB 06:00:00 TS 10.50 93.80 514 514 _________OP___ -1 10.50 93.80 TC 64 10.51 93.80 4 0 0
1886 NI BB 09:00:00 TS 10.51 93.80 514 514 _________PP___ -1 10.50 93.80 TC 64 10.51 93.80 4 0 0
1886 NI BB 12:00:00 TS 10.51 93.80 514 514 _________OP___ -1 10.50 93.80 TC 64 10.51 93.80 4 0 0
1886 NI BB 15:00:00 TS 10.50 93.80 514 514 _________PO___ -1 10.50 93.80 TC 64 10.50 93.80 4 0 0
1886 NI BB 18:00:00 TS 10.49 93.80 514 514 _________OP___ -1 10.50 93.80 TC 64 10.48 93.80 4 0 139
1886 NI BB 21:00:00 TS 10.47 93.80 514 514 _________PP___ -1 10.48 93.80 TC 64 10.46 93.80 4 0 0
1886 NI BB 1886-11-16 00:00:00 TS 10.48 93.80 514 514 _________OP___ -1 10.50 93.80 TC 64 10.46 93.80 4 1 18
1886 NI BB 03:00:00 TS 10.53 93.80 514 514 _________PO___ -1 10.57 93.80 TC 64 10.50 93.80 4 2 8
1886 NI BB 06:00:00 TS 10.65 93.80 514 514 _________OP___ -1 10.70 93.80 TC 64 10.61 93.80 4 3 0
1886 NI BB 09:00:00 TS 10.82 93.80 514 514 _________PP___ -1 10.89 93.80 TC 64 10.76 93.80 4 4 4
1886 NI BB 12:00:00 TS 11.01 93.80 515 515 _________OP___ -1 11.10 93.80 TC 64 10.93 93.80 4 4 4
1886 NI BB 15:00:00 TS 11.18 93.80 517 508 _________PO___ -1 11.26 93.80 TC 64 11.10 93.80 4 3 0
1886 NI BB 18:00:00 TS 11.33 93.80 508 485 _________OP___ -1 11.40 93.80 TC 64 11.25 93.80 4 3 0
1886 NI BB 21:00:00 TS 11.48 93.80 485 474 _________PP___ -1 11.55 93.80 TC 64 11.41 93.81 4 3 0
1886 NI BB 1886-11-17 00:00:00 TS 11.63 93.80 474 452 _________OP___ -1 11.70 93.80 TC 64 11.56 93.81 4 3 0
1886 NI BB 03:00:00 TS 11.78 93.80 452 441 _________PO___ -1 11.86 93.81 TC 64 11.70 93.80 4 3 355
1886 NI BB 06:00:00 TS 11.92 93.79 441 430 _________OP___ -1 12.00 93.80 TC 64 11.84 93.78 4 3 349
1886 NI BB 09:00:00 TS 12.04 93.75 430 421 _________PP___ -1 12.11 93.75 TC 64 11.97 93.76 4 2 341
1886 NI BB 12:00:00 TS 12.14 93.71 421 410 _________OP___ -1 12.20 93.70 TC 64 12.09 93.73 4 2 346
1886 NI BB 15:00:00 TS 12.25 93.70 399 399 _________PO___ -1 12.30 93.70 TC 64 12.20 93.70 4 2 0
1886 NI BB 18:00:00 TS 12.35 93.69 388 388 _________OP___ -1 12.40 93.70 TC 64 12.31 93.68 4 2 347
1886 NI BB 21:00:00 TS 12.45 93.66 377 377 _________PP___ -1 12.50 93.66 TC 64 12.41 93.66 4 2 341
1886 NI BB 1886-11-18 00:00:00 TS 12.55 93.62 368 368 _________OP___ -1 12.60 93.60 TC 64 12.50 93.63 4 2 337
1886 NI BB 03:00:00 TS 12.65 93.58 357 357 _________PO___ -1 12.70 93.55 TC 64 12.60 93.60 4 2 335
1886 NI BB 06:00:00 TS 12.75 93.53 360 349 _________OP___ -1 12.80 93.50 TC 64 12.70 93.56 4 2 333
1886 NI BB 09:00:00 TS 12.84 93.48 349 338 _________PP___ -1 12.89 93.45 TC 64 12.79 93.51 4 2 334
1886 NI BB 12:00:00 TS 12.95 93.43 342 320 _________OP___ -1 13.00 93.40 TC 64 12.89 93.45 4 3 335
1886 NI BB 15:00:00 TS 13.08 93.38 320 314 _________PO___ -1 13.15 93.35 TC 64 13.00 93.40 4 3 341
1886 NI BB 18:00:00 TS 13.21 93.33 314 303 _________OP___ -1 13.30 93.30 TC 64 13.13 93.35 4 3 340
1886 NI BB 21:00:00 TS 13.33 93.28 303 293 _________PP___ -1 13.41 93.25 TC 64 13.26 93.30 4 3 337
1886 NI BB 1886-11-19 00:00:00 TS 13.44 93.23 298 288 _________OP___ -1 13.50 93.20 TC 64 13.39 93.25 4 2 337
1886 NI BB 03:00:00 TS 13.55 93.18 278 278 _________PO___ -1 13.61 93.15 TC 64 13.50 93.20 4 2 333
1886 NI BB 06:00:00 TS 13.64 93.12 283 273 _________OP___ -1 13.70 93.10 TC 64 13.59 93.15 4 2 328
1886 NI BB 09:00:00 TS 13.70 93.07 273 269 _________PP___ -1 13.75 93.05 TC 64 13.66 93.10 4 2 322
1886 NI BB 12:00:00 TS 13.76 93.02 269 269 _________OP___ -1 13.80 93.00 TC 64 13.73 93.05 4 2 326
1886 NI BB 15:00:00 TS 13.85 92.98 269 260 _________PO___ -1 13.89 92.95 TC 64 13.80 93.00 4 2 336
1886 NI BB 18:00:00 TS 13.93 92.94 266 258 _________OP___ -1 14.00 92.90 TC 64 13.86 92.99 4 2 341
1886 NI BB 21:00:00 TS 14.00 92.92 258 249 _________PP___ -1 14.07 92.88 TC 64 13.94 92.97 4 2 338
1886 NI BB 1886-11-20 00:00:00 TS 14.12 92.86 249 240 _________OP___ -1 14.20 92.80 TC 64 14.05 92.91 4 4 326
1886 NI BB 03:00:00 TS 14.34 92.69 248 240 _________PO___ -1 14.48 92.59 TC 64 14.20 92.80 4 6 321
1886 NI BB 06:00:00 TS 14.62 92.45 248 241 _________OP___ -1 14.80 92.30 TC 64 14.43 92.59 4 8 317
1886 NI BB 09:00:00 TS 14.89 92.17 247 247 _________PP___ -1 15.06 92.01 TC 64 14.71 92.33 4 8 313
1886 NI BB 12:00:00 TS 15.16 91.86 262 262 _________OP___ -1 15.30 91.70 TC 64 15.01 92.02 4 8 312
1886 NI BB 15:00:00 TS 15.43 91.55 286 294 _________PO___ -1 15.56 91.40 TC 64 15.30 91.70 4 8 312
1886 NI BB 18:00:00 TS 15.68 91.26 312 312 _________OP___ -1 15.80 91.10 TC 64 15.56 91.42 4 7 311
1886 NI BB 21:00:00 TS 15.91 90.98 342 342 _________PP___ -1 16.01 90.81 TC 64 15.80 91.14 4 7 307
1886 NI BB 1886-11-21 00:00:00 TS 16.11 90.67 374 374 _________OP___ -1 16.20 90.50 TC 64 16.02 90.83 4 7 300
1886 NI BB 03:00:00 TS 16.29 90.31 418 418 _________PO___ -1 16.37 90.12 TC 64 16.20 90.50 4 8 293
1886 NI BB 06:00:00 TS 16.42 89.91 461 461 _________OP___ -1 16.50 89.70 TC 64 16.34 90.12 4 8 286
1886 NI BB 09:00:00 TS 16.51 89.51 504 475 _________PP___ -1 16.56 89.30 TC 64 16.45 89.72 4 8 281
1886 NI BB 12:00:00 TS 16.57 89.10 475 451 _________OP___ -1 16.60 88.90 TC 64 16.53 89.31 4 8 278
1886 NI BB 15:00:00 TS 16.62 88.70 451 420 _________PO___ -1 16.65 88.49 TC 64 16.60 88.90 4 8 279
1886 NI BB 18:00:00 TS 16.68 88.30 420 405 _________OP___ -1 16.70 88.10 TC 64 16.66 88.51 4 7 278
1886 NI BB 21:00:00 TS 16.73 87.93 401 379 _________PP___ -1 16.75 87.73 TC 64 16.71 88.13 4 7 278
1886 NI BB 1886-11-22 00:00:00 TS 16.78 87.58 379 363 _________OP___ -1 16.80 87.40 TC 64 16.76 87.76 4 7 278
1886 NI BB 03:00:00 TS 16.82 87.25 363 331 _________PO___ -1 16.85 87.10 TC 64 16.80 87.40 4 6 279
1886 NI BB 06:00:00 TS 16.88 86.93 323 300 _________OP___ -1 16.90 86.80 TC 64 16.85 87.07 4 6 280
1886 NI BB 09:00:00 TS 16.93 86.60 300 269 _________PP___ -1 16.95 86.46 TC 64 16.91 86.75 4 6 279
1886 NI BB 12:00:00 TS 16.98 86.27 269 238 _________OP___ -1 17.00 86.10 TC 64 16.96 86.43 4 7 279
1886 NI BB 15:00:00 TS 17.03 85.93 238 208 _________PO___ -1 17.06 85.76 TC 64 17.00 86.10 4 6 277
1886 NI BB 18:00:00 TS 17.06 85.60 208 177 _________OP___ -1 17.10 85.40 TC 64 17.03 85.75 4 7 274
1886 NI BB 21:00:00 TS 17.08 85.23 177 158 _________PP___ -1 17.11 85.01 TC 64 17.06 85.38 4 7 272
1886 NI BB 1886-11-23 00:00:00 TS 17.09 84.86 158 143 _________OP___ -1 17.10 84.60 TC 64 17.08 84.99 4 6 272
1886 NI BB 03:00:00 NR 17.10 84.60 143 __________O___ -1 TC 17.10 84.60 4 5 273